Karlovac, Croatia
Current Conditions -  °F | °C
As of 6:00 PM on Friday 24 Oct 2014 (Local Time) from LJCE Reporting Station
Light Rain Light Rain  
Wind Chill: 46°   Ceiling: 1600
Heat Index: 46°   Visibility: 6mi
Dew Point: 45°   Wind: 3mph
Humidity: 93%   Direction: 90°E
Pressure: 30.09"   Gusts: NA
Location:  45.5°N, 15.54°E
Report Text: LJCE 241600Z AUTO 09003KT 9999 -RA OVC016/// 08/07 Q1019
Loading
Personal Weather Stations






























Interactive Weather Map
Tropical Storm Tracking
New forecast layout! Learn more

10-Day Weather Forecast

Advertisements
Track Severe Weather on mobile